< Typhoon 197127 1971 Season Typhoon 197129 >
Typhoon 197128 (BESS)
General InformationTrack Information on Google Maps || Disaster Info.ResourceGoogle EarthGE AnimationAtom FeedGeoJSON
Detalied Best Track (Time Zone = UTC)
Year Month Day Hour Lat. Long. Pressure (hPa) Wind (kt) Class Image Chart
1971 9 16 12 15.7 152.5 1002 0 2 -- Chart
1971 9 16 18 16.2 151.6 1000 0 2 -- Chart
1971 9 17 00 16.5 150.7 998 0 2 -- Chart
1971 9 17 06 17.2 149.4 990 0 9 -- Chart
1971 9 17 12 17.3 149.1 985 0 9 -- Chart
1971 9 17 18 17.4 148.3 980 0 9 -- Chart
1971 9 18 00 18.0 147.3 975 0 9 -- Chart
1971 9 18 06 18.5 145.8 970 0 9 -- Chart
1971 9 18 12 19.0 144.0 960 0 9 -- Chart
1971 9 18 18 19.5 142.7 945 0 9 -- Chart
1971 9 19 00 19.8 141.3 925 0 9 -- Chart
1971 9 19 06 20.2 139.8 915 0 9 -- Chart
1971 9 19 12 20.3 138.3 915 0 9 -- Chart
1971 9 19 18 20.7 136.5 915 0 9 -- Chart
1971 9 20 00 21.2 135.0 910 0 9 -- Chart
1971 9 20 06 21.4 133.6 905 0 9 -- Chart
1971 9 20 12 21.7 132.3 905 0 9 -- Chart
1971 9 20 18 21.8 130.9 910 0 9 -- Chart
1971 9 21 00 22.3 129.8 915 0 9 -- Chart
1971 9 21 06 22.5 128.6 920 0 9 -- Chart
1971 9 21 12 23.0 127.0 925 0 9 -- Chart
1971 9 21 18 23.3 126.2 930 0 9 -- Chart
1971 9 22 00 23.5 125.3 945 0 9 -- Chart
1971 9 22 06 24.0 124.0 940 0 9 -- Chart
1971 9 22 12 24.5 122.6 940 0 9 -- Chart
1971 9 22 18 25.0 121.5 960 0 9 -- Chart
1971 9 23 00 25.5 120.5 970 0 9 -- Chart
1971 9 23 06 26.3 119.3 980 0 9 -- Chart
1971 9 23 12 27.8 118.4 992 0 2 -- Chart
1971 9 23 18 30.0 118.1 996 0 2 -- Chart
1971 9 24 00 31.8 118.2 998 0 6 -- Chart
1971 9 24 06 33.0 120.0 998 0 6 -- Chart
1971 9 24 12 34.3 121.6 998 0 6 -- Chart
1971 9 24 18 35.6 123.5 996 0 6 -- Chart
1971 9 25 00 36.8 125.6 996 0 6 -- Chart
1971 9 25 06 37.8 126.8 997 0 6 -- Chart
1971 9 25 12 38.5 127.7 1000 0 6 -- Chart
1971 9 25 18 39.5 128.7 1002 0 6 -- Chart
1971 9 26 00 40.0 130.0 1004 0 6 -- Chart
Japan Meteorological Agency Best Track Data | Correction Date : 2013-03-19
< Typhoon 197127 1971 Season Typhoon 197129 >

Help